Tom Car — XCAJ3 — position and weather

sailwx.info

Track history (hours):
 
Tides and Currents Weather Stations Pressure Air Temp Water Temp Dewpoint Dewpoint Depression Visibility Wind Speed Wind Dir Waves Ship Positions

Tom Car

Last reported at 2018-Apr-19 23:48 UTC. Time now 2018-Apr-20 06:50 UTC.
Position N 19°12' W 096°08'.

Length 10 m.

Type: Pilot. MMSI: 345030093.

Date/timePositionNaut miles runAvg speedWind from/ knotsBaromVisibWave heightAir tempDewpointWater temp
2018-Apr-19 23:48N 19°12' W 096°08'0 0.0
2018-Apr-19 23:27N 19°12' W 096°08'0 0.0
2018-Apr-19 22:57N 19°12' W 096°08'0 0.0
2018-Apr-19 22:30N 19°12' W 096°08'0 0.1
2018-Apr-19 21:42N 19°12' W 096°08'0 1.0
2018-Apr-19 21:26N 19°12' W 096°08'0 0.1
2018-Apr-19 16:51N 19°13' W 096°08'1 1.6
2018-Apr-19 16:21N 19°12' W 096°08'2 2.6
2018-Apr-19 15:45N 19°12' W 096°06'2 0.7
2018-Apr-19 13:25N 19°12' W 096°08'0 0.0
2018-Apr-19 12:46N 19°12' W 096°08'1 1.2
2018-Apr-19 12:19N 19°12' W 096°08'0 0.7
2018-Apr-19 11:55N 19°12' W 096°08'0 0.6
2018-Apr-19 11:29N 19°12' W 096°08'0 0.1
2018-Apr-19 06:53N 19°12' W 096°08'0 0.8
2018-Apr-19 06:29N 19°12' W 096°08'0 0.0
2018-Apr-19 05:50N 19°12' W 096°08'0 0.0
2018-Apr-19 05:23N 19°12' W 096°08'0 0.0
2018-Apr-19 04:56N 19°12' W 096°08'0 0.0
2018-Apr-19 04:29N 19°12' W 096°08'0 0.0
2018-Apr-19 00:55N 19°12' W 096°08'0 0.0
2018-Apr-19 00:28N 19°12' W 096°08'0 0.0
2018-Apr-18 22:40N 19°12' W 096°08'0 0.0
2018-Apr-18 22:19N 19°12' W 096°08'0 0.0
2018-Apr-18 21:37N 19°12' W 096°08'0 0.0
2018-Apr-18 19:58N 19°12' W 096°08'0 0.0
2018-Apr-18 19:25N 19°12' W 096°08'0 0.0
2018-Apr-18 18:43N 19°12' W 096°08'0 0.0
2018-Apr-18 18:30N 19°12' W 096°08'1 1.9
2018-Apr-18 18:00N 19°12' W 096°07'2 2.7
2018-Apr-18 17:25N 19°13' W 096°08'1 2.1
2018-Apr-18 16:59N 19°12' W 096°08'2 4.2
2018-Apr-18 16:30N 19°12' W 096°06'2 4.0
2018-Apr-18 15:59N 19°12' W 096°08'0 0.0
2018-Apr-18 15:28N 19°12' W 096°08'0 0.0
2018-Apr-18 14:58N 19°12' W 096°08'0 0.0
2018-Apr-18 14:28N 19°12' W 096°08'0 0.0
2018-Apr-18 14:00N 19°12' W 096°08'0 0.0
2018-Apr-18 10:09N 19°12' W 096°08'0 0.0
2018-Apr-18 09:57N 19°12' W 096°08'0 0.0
2018-Apr-18 09:27N 19°12' W 096°08'0 0.0
2018-Apr-18 08:57N 19°12' W 096°08'0 0.0
2018-Apr-18 08:27N 19°12' W 096°08'0 0.0
2018-Apr-18 07:57N 19°12' W 096°08'0 0.0
2018-Apr-18 07:27N 19°12' W 096°08'0 0.0
2018-Apr-18 07:00N 19°12' W 096°08'0 0.0
2018-Apr-18 06:30N 19°12' W 096°08'0 0.0
2018-Apr-18 05:57N 19°12' W 096°08'0 0.0
2018-Apr-18 05:27N 19°12' W 096°08'0 0.0
2018-Apr-18 05:00N 19°12' W 096°08'0 0.0
2018-Apr-18 04:27N 19°12' W 096°08'0 0.0
2018-Apr-18 03:57N 19°12' W 096°08'0 0.0
2018-Apr-18 03:27N 19°12' W 096°08'0 0.0
2018-Apr-18 02:51N 19°12' W 096°08'0 0.0
2018-Apr-18 02:30N 19°12' W 096°08'0 0.0
2018-Apr-18 02:00N 19°12' W 096°08'0 0.0
2018-Apr-18 01:21N 19°12' W 096°08'0 0.0
2018-Apr-18 01:00N 19°12' W 096°08'0 0.0
2018-Apr-18 00:27N 19°12' W 096°08'0 0.0
2018-Apr-17 23:57N 19°12' W 096°08'0 0.0
2018-Apr-17 23:30N 19°12' W 096°08'0 0.0
2018-Apr-17 22:57N 19°12' W 096°08'0 0.0
2018-Apr-17 22:30N 19°12' W 096°08'0 0.0
2018-Apr-17 21:57N 19°12' W 096°08'0 0.0
2018-Apr-17 21:30N 19°12' W 096°08'0 0.0
2018-Apr-17 20:57N 19°12' W 096°08'0 0.0
2018-Apr-17 20:24N 19°12' W 096°08'0 0.0
2018-Apr-17 20:00N 19°12' W 096°08'0 0.0
2018-Apr-17 19:24N 19°12' W 096°08'0 0.0
2018-Apr-17 19:00N 19°12' W 096°08'0 0.0
2018-Apr-17 18:30N 19°12' W 096°08'0 0.0
2018-Apr-17 18:00N 19°12' W 096°08'0 0.0
2018-Apr-17 17:30N 19°12' W 096°08'0 0.0
2018-Apr-17 16:57N 19°12' W 096°08'0 0.0
2018-Apr-17 16:30N 19°12' W 096°08'0 0.0
2018-Apr-17 16:00N 19°12' W 096°08'0 0.0
2018-Apr-17 15:27N 19°12' W 096°08'3 5.8
2018-Apr-17 15:00N 19°12' W 096°05'2 4.6
2018-Apr-17 14:29N 19°12' W 096°08'0 0.9
2018-Apr-17 14:00N 19°12' W 096°08'0 0.8
2018-Apr-17 13:29N 19°12' W 096°08'0 0.0
2018-Apr-17 12:59N 19°12' W 096°08'0 0.0
2018-Apr-17 12:26N 19°12' W 096°08'0 0.0
2018-Apr-17 11:59N 19°12' W 096°08'0 0.0
2018-Apr-17 11:29N 19°12' W 096°08'0 0.0
2018-Apr-17 10:59N 19°12' W 096°08'0 0.0
2018-Apr-17 10:26N 19°12' W 096°08'0 0.0
2018-Apr-17 09:56N 19°12' W 096°08'0 0.0
2018-Apr-17 09:29N 19°12' W 096°08'0 0.0
2018-Apr-17 08:59N 19°12' W 096°08'0 0.0
2018-Apr-17 08:23N 19°12' W 096°08'0 0.0
2018-Apr-17 07:59N 19°12' W 096°08'0 0.0
2018-Apr-17 07:29N 19°12' W 096°08'3 5.7
2018-Apr-17 07:00N 19°12' W 096°05'3 5.1
2018-Apr-17 06:30N 19°12' W 096°08'0 0.0
2018-Apr-17 06:00N 19°12' W 096°08'0 0.5
2018-Apr-17 05:28N 19°12' W 096°08'0 0.0
2018-Apr-17 04:58N 19°12' W 096°08'0 0.4
2018-Apr-17 04:18N 19°12' W 096°08'0 0.0
2018-Apr-17 04:00N 19°12' W 096°08'0 0.0
2018-Apr-17 03:30N 19°12' W 096°08'0 0.0
2018-Apr-17 03:00N 19°12' W 096°08'0 0.0
2018-Apr-17 02:30N 19°12' W 096°08'0 0.0
2018-Apr-17 02:00N 19°12' W 096°08'0 0.1
2018-Apr-17 01:30N 19°12' W 096°08'1 1.3
2018-Apr-17 00:58N 19°13' W 096°08'1 2.1
2018-Apr-17 00:30N 19°12' W 096°08'4 6.8
2018-Apr-16 23:54N 19°12' W 096°03'4 8.9
2018-Apr-16 23:29N 19°12' W 096°07'0 0.9
2018-Apr-16 22:59N 19°12' W 096°08'0 0.0
2018-Apr-16 22:29N 19°12' W 096°08'0 0.0
2018-Apr-16 21:59N 19°12' W 096°08'0 0.0
2018-Apr-16 21:29N 19°12' W 096°08'0 0.0
2018-Apr-16 20:59N 19°12' W 096°08'1 1.8
2018-Apr-16 20:28N 19°13' W 096°08'0 1.0
2018-Apr-16 19:59N 19°12' W 096°08'3 4.4
2018-Apr-16 19:19N 19°12' W 096°05'3 8.4
2018-Apr-16 19:00N 19°12' W 096°08'0 0.0
2018-Apr-16 18:30N 19°12' W 096°08'0 0.3
2018-Apr-16 17:38N 19°12' W 096°08'0 0.0
2018-Apr-16 17:29N 19°12' W 096°08'0 0.0
2018-Apr-16 16:59N 19°12' W 096°08'0 0.0
2018-Apr-16 16:20N 19°12' W 096°08'0 0.0
2018-Apr-16 15:52N 19°12' W 096°08'0 0.0
2018-Apr-16 15:20N 19°12' W 096°08'0 0.0
2018-Apr-16 14:58N 19°12' W 096°08'0 0.0
2018-Apr-16 14:28N 19°12' W 096°08'0 0.0
2018-Apr-16 13:58N 19°12' W 096°08'0 0.6
2018-Apr-16 13:30N 19°12' W 096°08'0 0.0
2018-Apr-16 13:00N 19°12' W 096°08'0 0.0
2018-Apr-16 12:30N 19°12' W 096°08'0 0.1
2018-Apr-16 12:00N 19°12' W 096°08'0 0.1
2018-Apr-16 11:30N 19°12' W 096°08'2 3.8
2018-Apr-16 10:59N 19°12' W 096°06'2 3.9
2018-Apr-16 10:29N 19°12' W 096°08'0 0.0
2018-Apr-16 09:59N 19°12' W 096°08'0 0.0
2018-Apr-16 09:26N 19°12' W 096°08'0 0.0
2018-Apr-16 08:59N 19°12' W 096°08'0 0.0
2018-Apr-16 08:29N 19°12' W 096°08'0 0.0
2018-Apr-16 07:59N 19°12' W 096°08'0 0.0
2018-Apr-16 07:26N 19°12' W 096°08'0 0.0
2018-Apr-16 06:59N 19°12' W 096°08'0 0.0
2018-Apr-16 06:29N 19°12' W 096°08'0 0.0
2018-Apr-16 05:59N 19°12' W 096°08'0 0.0
2018-Apr-16 05:29N 19°12' W 096°08'0 0.0
2018-Apr-16 04:56N 19°12' W 096°08'0 0.0
2018-Apr-16 04:29N 19°12' W 096°08'0 0.0
2018-Apr-16 03:59N 19°12' W 096°08'0 0.0
2018-Apr-16 03:26N 19°12' W 096°08'0 0.0
2018-Apr-16 02:59N 19°12' W 096°08'0 0.0
2018-Apr-16 02:20N 19°12' W 096°08'0 0.0
2018-Apr-16 01:56N 19°12' W 096°08'0 0.0
2018-Apr-16 01:29N 19°12' W 096°08'0 0.0
2018-Apr-16 00:56N 19°12' W 096°08'0 0.0
2018-Apr-16 00:29N 19°12' W 096°08'3 4.9
2018-Apr-15 23:56N 19°12' W 096°05'3 6.3
2018-Apr-15 23:30N 19°12' W 096°08'0 0.0
2018-Apr-15 23:00N 19°12' W 096°08'0 0.0
2018-Apr-15 22:27N 19°12' W 096°08'0 0.0
2018-Apr-15 22:00N 19°12' W 096°08'0 0.0
2018-Apr-15 21:30N 19°12' W 096°08'0 0.0
2018-Apr-15 21:00N 19°12' W 096°08'0 0.0
2018-Apr-15 20:30N 19°12' W 096°08'0 0.0
2018-Apr-15 20:00N 19°12' W 096°08'0 0.0
2018-Apr-15 19:30N 19°12' W 096°08'0 0.1
2018-Apr-15 19:00N 19°12' W 096°08'0 0.4
2018-Apr-15 18:21N 19°12' W 096°08'0 0.0
2018-Apr-15 18:00N 19°12' W 096°08'0 0.0
2018-Apr-15 17:24N 19°12' W 096°08'0 0.0
2018-Apr-15 16:57N 19°12' W 096°08'0 0.0
2018-Apr-15 16:21N 19°12' W 096°08'0 0.0
2018-Apr-15 16:00N 19°12' W 096°08'0 0.0
2018-Apr-15 15:30N 19°12' W 096°08'0 0.0
2018-Apr-15 15:00N 19°12' W 096°08'0 0.0
2018-Apr-15 14:30N 19°12' W 096°08'0 0.0
2018-Apr-15 13:54N 19°12' W 096°08'0 0.0
2018-Apr-15 13:30N 19°12' W 096°08'0 0.0
2018-Apr-15 13:00N 19°12' W 096°08'0 0.0
2018-Apr-15 12:30N 19°12' W 096°08'0 0.0
2018-Apr-15 12:00N 19°12' W 096°08'0 0.0
2018-Apr-15 11:30N 19°12' W 096°08'0 0.0
2018-Apr-15 10:57N 19°12' W 096°08'0 0.0
2018-Apr-15 10:09N 19°12' W 096°08'0 0.0
2018-Apr-15 10:00N 19°12' W 096°08'0 0.0
2018-Apr-15 09:24N 19°12' W 096°08'0 0.0
2018-Apr-15 08:51N 19°12' W 096°08'0 0.0
2018-Apr-15 08:24N 19°12' W 096°08'0 0.0
2018-Apr-15 08:00N 19°12' W 096°08'0 0.0
2018-Apr-15 07:24N 19°12' W 096°08'0 0.0
2018-Apr-15 06:54N 19°12' W 096°08'0 0.0
2018-Apr-15 06:03N 19°12' W 096°08'0 0.0
2018-Apr-15 06:00N 19°12' W 096°08'0 0.0
2018-Apr-15 05:00N 19°12' W 096°08'0 0.0
2018-Apr-15 04:30N 19°12' W 096°08'0 0.0
2018-Apr-15 04:00N 19°12' W 096°08'0 0.0
2018-Apr-15 03:30N 19°12' W 096°08'0 0.0
2018-Apr-15 03:00N 19°12' W 096°08'0 0.0
2018-Apr-15 02:18N 19°12' W 096°08'0 0.0
2018-Apr-15 02:00N 19°12' W 096°08'0 0.0
2018-Apr-15 01:30N 19°12' W 096°08'0 0.0
2018-Apr-15 00:54N 19°12' W 096°08'0 0.0
2018-Apr-15 00:24N 19°12' W 096°08'0 0.0
2018-Apr-15 00:00N 19°12' W 096°08'0 0.0
2018-Apr-14 23:24N 19°12' W 096°08'0 0.0
2018-Apr-14 23:00N 19°12' W 096°08'0 0.0
2018-Apr-14 22:30N 19°12' W 096°08'0 0.0
2018-Apr-14 22:00N 19°12' W 096°08'0 0.0
2018-Apr-14 21:24N 19°12' W 096°08'0 0.0
2018-Apr-14 20:54N 19°12' W 096°08'0 0.0
2018-Apr-14 20:30N 19°12' W 096°08'0 0.0
2018-Apr-14 20:00N 19°12' W 096°08'0 0.0
2018-Apr-14 19:30N 19°12' W 096°08'0 0.6
2018-Apr-14 19:00N 19°12' W 096°08'0 0.0
2018-Apr-14 18:30N 19°12' W 096°08'0 0.0
2018-Apr-14 18:00N 19°12' W 096°08'0 0.0
2018-Apr-14 17:30N 19°12' W 096°08'2 3.5
2018-Apr-14 16:59N 19°12' W 096°06'2 3.3
2018-Apr-14 16:30N 19°12' W 096°08'0 0.7
2018-Apr-14 15:59N 19°12' W 096°08'0 0.0
2018-Apr-14 15:26N 19°12' W 096°08'0 0.0
2018-Apr-14 14:59N 19°12' W 096°08'0 0.0
2018-Apr-14 14:29N 19°12' W 096°08'0 0.0
2018-Apr-14 13:59N 19°12' W 096°08'0 0.0
2018-Apr-14 13:29N 19°12' W 096°08'3 5.3
2018-Apr-14 12:57N 19°12' W 096°05'2 4.9
2018-Apr-14 12:30N 19°12' W 096°07'1 1.1
2018-Apr-14 11:58N 19°12' W 096°08'0 0.1
2018-Apr-14 11:27N 19°12' W 096°08'0 0.0
2018-Apr-14 11:00N 19°12' W 096°08'0 0.0
2018-Apr-14 10:30N 19°12' W 096°08'0 0.0
2018-Apr-14 10:00N 19°12' W 096°08'0 0.0
2018-Apr-14 09:30N 19°12' W 096°08'2 3.3
2018-Apr-14 08:59N 19°12' W 096°06'2 3.3
2018-Apr-14 08:28N 19°12' W 096°08'0 0.0
2018-Apr-14 07:58N 19°12' W 096°08'0 0.0
2018-Apr-14 07:29N 19°12' W 096°08'1 0.8
2018-Apr-14 06:28N 19°13' W 096°08'0 0.0
2018-Apr-14 06:00N 19°13' W 096°08'5 7.6
2018-Apr-14 05:23N 19°11' W 096°04'4 9.8
2018-Apr-14 04:59N 19°12' W 096°08'0 0.3
2018-Apr-14 04:30N 19°12' W 096°08'0 0.0
2018-Apr-14 04:00N 19°12' W 096°08'0 0.0
2018-Apr-14 03:30N 19°12' W 096°08'0 0.9
2018-Apr-14 03:00N 19°12' W 096°07'1 2.1
2018-Apr-14 02:30N 19°12' W 096°06'2 2.9
2018-Apr-14 01:58N 19°12' W 096°08'0 0.4
2018-Apr-14 01:31N 19°12' W 096°08'0 0.0
2018-Apr-14 01:01N 19°12' W 096°08'0 0.0
2018-Apr-14 00:30N 19°12' W 096°08'0 0.0
2018-Apr-13 23:58N 19°12' W 096°08'0 0.0
2018-Apr-13 23:31N 19°12' W 096°08'0 0.0
2018-Apr-13 23:01N 19°12' W 096°08'1 1.5
2018-Apr-13 22:30N 19°12' W 096°07'0 0.2
2018-Apr-13 21:58N 19°12' W 096°07'1 1.2
2018-Apr-13 21:30N 19°12' W 096°07'0 0.8
2018-Apr-13 20:58N 19°12' W 096°08'1 1.6
2018-Apr-13 20:30N 19°13' W 096°08'1 1.5
2018-Apr-13 19:59N 19°12' W 096°08'0 0.6
2018-Apr-13 19:28N 19°12' W 096°08'0 0.4
2018-Apr-13 19:00N 19°12' W 096°08'0 0.2
2018-Apr-13 18:29N 19°12' W 096°08'0 0.0
2018-Apr-13 17:59N 19°12' W 096°08'0 0.0
2018-Apr-13 17:26N 19°12' W 096°08'0 0.0
2018-Apr-13 17:00N 19°12' W 096°08'0 0.5
2018-Apr-13 16:29N 19°12' W 096°08'0 0.0
2018-Apr-13 15:56N 19°12' W 096°08'0 0.0
2018-Apr-13 15:29N 19°12' W 096°08'0 0.0
2018-Apr-13 14:44N 19°12' W 096°08'0 0.0
2018-Apr-13 14:26N 19°12' W 096°08'0 0.0
2018-Apr-13 13:56N 19°12' W 096°08'0 0.0
2018-Apr-13 13:17N 19°12' W 096°08'0 0.0
2018-Apr-13 12:59N 19°12' W 096°08'0 0.0
2018-Apr-13 12:26N 19°12' W 096°08'0 0.0
2018-Apr-13 11:56N 19°12' W 096°08'0 0.0
2018-Apr-13 11:29N 19°12' W 096°08'0 0.0
2018-Apr-13 10:50N 19°12' W 096°08'0 0.0
2018-Apr-13 10:26N 19°12' W 096°08'0 0.0
2018-Apr-13 09:56N 19°12' W 096°08'0 0.0
2018-Apr-13 09:26N 19°12' W 096°08'0 0.0
2018-Apr-13 08:56N 19°12' W 096°08'0 0.0
2018-Apr-13 08:26N 19°12' W 096°08'0 0.2
2018-Apr-13 07:59N 19°12' W 096°08'2 4.4
2018-Apr-13 07:29N 19°12' W 096°06'2 4.2
2018-Apr-13 06:59N 19°12' W 096°08'0 0.1
2018-Apr-13 06:28N 19°12' W 096°08'0 0.0
2018-Apr-13 05:55N 19°12' W 096°08'0 0.0
2018-Apr-13 05:25N 19°12' W 096°08'0 0.0
2018-Apr-13 04:58N 19°12' W 096°08'0 0.0
2018-Apr-13 04:28N 19°12' W 096°08'0 0.0
2018-Apr-13 03:58N 19°12' W 096°08'0 0.0
2018-Apr-13 03:28N 19°12' W 096°08'0 0.0
2018-Apr-13 02:58N 19°12' W 096°08'0 0.0
2018-Apr-13 02:27N 19°12' W 096°08'2 4.3
2018-Apr-13 02:00N 19°12' W 096°06'2 3.7
2018-Apr-13 01:28N 19°12' W 096°08'0 0.0
2018-Apr-13 01:00N 19°12' W 096°08'0 0.0
2018-Apr-13 00:30N 19°12' W 096°08'0 0.0
2018-Apr-12 23:57N 19°12' W 096°08'0 0.0
2018-Apr-12 23:21N 19°12' W 096°08'3 6.6
2018-Apr-12 22:56N 19°12' W 096°05'2 5.2
2018-Apr-12 22:30N 19°12' W 096°07'1 1.1
2018-Apr-12 22:00N 19°12' W 096°08'0 0.0
2018-Apr-12 21:30N 19°12' W 096°08'0 0.0
2018-Apr-12 21:00N 19°12' W 096°08'0 0.0
2018-Apr-12 20:31N 19°12' W 096°08'0 0.0
2018-Apr-12 19:55N 19°12' W 096°08'0 0.0
2018-Apr-12 19:31N 19°12' W 096°08'0 0.0
2018-Apr-12 19:01N 19°12' W 096°08'0 0.0
2018-Apr-12 18:31N 19°12' W 096°08'0 0.0
2018-Apr-12 18:01N 19°12' W 096°08'0 0.0
2018-Apr-12 17:27N 19°12' W 096°08'0 0.2
2018-Apr-12 17:00N 19°12' W 096°08'0 0.4
2018-Apr-12 16:30N 19°12' W 096°08'3 5.7
2018-Apr-12 15:56N 19°11' W 096°04'3 7.9
2018-Apr-12 15:29N 19°12' W 096°08'0 0.0
2018-Apr-12 14:50N 19°12' W 096°08'0 0.0
2018-Apr-12 14:26N 19°12' W 096°08'0 0.0
2018-Apr-12 13:59N 19°12' W 096°08'0 0.0
2018-Apr-12 13:29N 19°12' W 096°08'0 0.0
2018-Apr-12 12:56N 19°12' W 096°08'0 0.6
2018-Apr-12 12:26N 19°12' W 096°08'0 0.7
2018-Apr-12 11:59N 19°12' W 096°08'0 0.0
2018-Apr-12 11:23N 19°12' W 096°08'0 0.0
2018-Apr-12 10:59N 19°12' W 096°08'0 0.0
2018-Apr-12 10:29N 19°12' W 096°08'0 0.0
2018-Apr-12 09:59N 19°12' W 096°08'0 0.0
2018-Apr-12 09:29N 19°12' W 096°08'0 0.0
2018-Apr-12 08:59N 19°12' W 096°08'0 0.0
2018-Apr-12 08:29N 19°12' W 096°08'0 0.0
2018-Apr-12 07:56N 19°12' W 096°08'0 0.0
2018-Apr-12 07:29N 19°12' W 096°08'0 0.0
2018-Apr-12 06:56N 19°12' W 096°08'0 0.0
2018-Apr-12 06:29N 19°12' W 096°08'0 0.0
2018-Apr-12 05:56N 19°12' W 096°08'0 0.0
2018-Apr-12 05:29N 19°12' W 096°08'0 0.0
2018-Apr-12 04:56N 19°12' W 096°08'2 4.3
2018-Apr-12 04:30N 19°12' W 096°06'1 2.2
2018-Apr-12 04:00N 19°12' W 096°07'1 1.5
2018-Apr-12 03:29N 19°12' W 096°08'0 0.0
2018-Apr-12 02:59N 19°12' W 096°08'0 0.0
2018-Apr-12 02:26N 19°12' W 096°08'0 0.0
2018-Apr-12 01:59N 19°12' W 096°08'0 0.0
2018-Apr-12 01:29N 19°12' W 096°08'0 0.0
2018-Apr-12 00:59N 19°12' W 096°08'0 0.0
2018-Apr-12 00:29N 19°12' W 096°08'0 0.0
2018-Apr-11 23:59N 19°12' W 096°08'0 0.0
2018-Apr-11 23:30N 19°12' W 096°08'0 0.5
2018-Apr-11 22:56N 19°12' W 096°08'0 0.0
2018-Apr-11 22:29N 19°12' W 096°08'0 0.0
2018-Apr-11 21:59N 19°12' W 096°08'0 0.0
2018-Apr-11 21:29N 19°12' W 096°08'0 0.0
2018-Apr-11 20:56N 19°12' W 096°08'0 0.0
2018-Apr-11 20:29N 19°12' W 096°08'0 0.0
2018-Apr-11 19:59N 19°12' W 096°08'0 0.0
2018-Apr-11 19:29N 19°12' W 096°08'0 0.0
2018-Apr-11 18:59N 19°12' W 096°08'0 0.0
2018-Apr-11 18:20N 19°12' W 096°08'0 0.0
2018-Apr-11 17:59N 19°12' W 096°08'0 0.0
2018-Apr-11 17:29N 19°12' W 096°08'0 0.0
2018-Apr-11 16:59N 19°12' W 096°08'0 0.0
2018-Apr-11 16:29N 19°12' W 096°08'0 0.0
2018-Apr-11 15:59N 19°12' W 096°08'0 0.0
2018-Apr-11 15:29N 19°12' W 096°08'0 0.0
2018-Apr-11 14:59N 19°12' W 096°08'0 0.0
2018-Apr-11 14:23N 19°12' W 096°08'0 0.0
2018-Apr-11 13:59N 19°12' W 096°08'0 0.0
2018-Apr-11 13:29N 19°12' W 096°08'0 0.0
2018-Apr-11 12:59N 19°12' W 096°08'0 0.0
2018-Apr-11 12:29N 19°12' W 096°08'0 0.0
2018-Apr-11 11:56N 19°12' W 096°08'0 0.0
2018-Apr-11 11:26N 19°12' W 096°08'0 0.0
2018-Apr-11 10:59N 19°12' W 096°08'0 0.0
2018-Apr-11 10:29N 19°12' W 096°08'0 0.0
2018-Apr-11 09:59N 19°12' W 096°08'0 0.0
2018-Apr-11 09:17N 19°12' W 096°08'0 0.0
2018-Apr-11 08:59N 19°12' W 096°08'0 0.0
2018-Apr-11 08:29N 19°12' W 096°08'0 0.0
2018-Apr-11 07:59N 19°12' W 096°08'0 0.0
2018-Apr-11 07:29N 19°12' W 096°08'0 0.0
2018-Apr-11 06:56N 19°12' W 096°08'0 0.0
2018-Apr-11 06:29N 19°12' W 096°08'0 0.0
2018-Apr-11 05:59N 19°12' W 096°08'0 0.0
2018-Apr-11 05:20N 19°12' W 096°08'0 0.0
2018-Apr-11 04:59N 19°12' W 096°08'0 0.0
2018-Apr-11 04:29N 19°12' W 096°08'0 0.0
2018-Apr-11 03:59N 19°12' W 096°08'0 0.0
2018-Apr-11 03:29N 19°12' W 096°08'0 0.0
2018-Apr-11 02:59N 19°12' W 096°08'0 0.0
2018-Apr-11 02:29N 19°12' W 096°08'0 0.0
2018-Apr-11 01:59N 19°12' W 096°08'0 0.0
2018-Apr-11 01:29N 19°12' W 096°08'0 0.0
2018-Apr-11 00:56N 19°12' W 096°08'0 0.7
2018-Apr-11 00:30N 19°12' W 096°08'0 0.0
2018-Apr-11 00:00N 19°12' W 096°08'0 0.0
2018-Apr-10 23:30N 19°12' W 096°08'0 0.0
2018-Apr-10 23:00N 19°12' W 096°08'3 4.9
2018-Apr-10 22:25N 19°12' W 096°05'2 5.1
2018-Apr-10 22:00N 19°12' W 096°07'1 1.8
2018-Apr-10 21:28N 19°12' W 096°08'0 1.0
2018-Apr-10 21:00N 19°12' W 096°08'0 0.0
2018-Apr-10 20:27N 19°12' W 096°08'0 0.0
2018-Apr-10 20:00N 19°12' W 096°08'0 0.0
2018-Apr-10 19:30N 19°12' W 096°08'0 0.0
2018-Apr-10 19:00N 19°12' W 096°08'0 0.0
2018-Apr-10 18:30N 19°12' W 096°08'0 0.0
2018-Apr-10 18:00N 19°12' W 096°08'0 0.0
2018-Apr-10 17:30N 19°12' W 096°08'0 0.0
2018-Apr-10 17:00N 19°12' W 096°08'1 1.6
2018-Apr-10 16:29N 19°13' W 096°08'1 1.0
2018-Apr-10 15:55N 19°12' W 096°08'0 0.0
2018-Apr-10 15:30N 19°12' W 096°08'0 0.5
2018-Apr-10 14:58N 19°12' W 096°08'2 5.2
2018-Apr-10 14:30N 19°12' W 096°05'2 4.7
2018-Apr-10 14:00N 19°12' W 096°08'0 0.5
2018-Apr-10 13:27N 19°12' W 096°08'0 0.5
2018-Apr-10 12:55N 19°12' W 096°08'0 0.0
2018-Apr-10 12:30N 19°12' W 096°08'0 0.0
2018-Apr-10 11:59N 19°12' W 096°08'0 0.0
2018-Apr-10 11:29N 19°12' W 096°08'0 0.1
2018-Apr-10 10:59N 19°12' W 096°08'0 0.1
2018-Apr-10 10:30N 19°12' W 096°08'2 4.7
2018-Apr-10 09:58N 19°12' W 096°05'3 5.4
2018-Apr-10 09:30N 19°12' W 096°08'0 0.0
2018-Apr-10 09:00N 19°12' W 096°08'0 0.0
2018-Apr-10 08:30N 19°12' W 096°08'0 0.0
2018-Apr-10 08:00N 19°12' W 096°08'0 0.0
2018-Apr-10 07:27N 19°12' W 096°08'0 0.0
2018-Apr-10 07:00N 19°12' W 096°08'0 0.0
2018-Apr-10 06:27N 19°12' W 096°08'0 0.2
2018-Apr-10 06:00N 19°12' W 096°08'2 3.9
2018-Apr-10 05:30N 19°12' W 096°06'0 0.8
2018-Apr-10 04:59N 19°12' W 096°05'2 3.6
2018-Apr-10 04:29N 19°11' W 096°03'2 4.0
2018-Apr-10 03:59N 19°12' W 096°06'0 0.9
2018-Apr-10 03:29N 19°12' W 096°06'2 3.4
2018-Apr-10 02:59N 19°12' W 096°08'0 0.5
2018-Apr-10 02:28N 19°12' W 096°08'0 0.0
2018-Apr-10 01:58N 19°12' W 096°08'0 0.0
2018-Apr-10 01:28N 19°12' W 096°08'0 0.0
2018-Apr-10 00:58N 19°12' W 096°08'0 0.0
2018-Apr-10 00:25N 19°12' W 096°08'0 0.0
2018-Apr-09 23:58N 19°12' W 096°08'  
Track history (hours):
 
Tides and Currents Weather Stations Pressure Air Temp Water Temp Dewpoint Dewpoint Depression Visibility Wind Speed Wind Dir Waves Ship Positions

Tom Car

Last reported at 2018-Apr-19 23:48 UTC. Time now 2018-Apr-20 06:50 UTC.
Position N 19°12' W 096°08'.

Length 10 m.

Type: Pilot. MMSI: 345030093.

Date/timePositionNaut miles runAvg speedWind from/ knotsBaromVisibWave heightAir tempDewpointWater temp
2018-Apr-19 23:48N 19°12' W 096°08'0 0.0
2018-Apr-19 23:27N 19°12' W 096°08'0 0.0
2018-Apr-19 22:57N 19°12' W 096°08'0 0.0
2018-Apr-19 22:30N 19°12' W 096°08'0 0.1
2018-Apr-19 21:42N 19°12' W 096°08'0 1.0
2018-Apr-19 21:26N 19°12' W 096°08'0 0.1
2018-Apr-19 16:51N 19°13' W 096°08'1 1.6
2018-Apr-19 16:21N 19°12' W 096°08'2 2.6
2018-Apr-19 15:45N 19°12' W 096°06'2 0.7
2018-Apr-19 13:25N 19°12' W 096°08'0 0.0
2018-Apr-19 12:46N 19°12' W 096°08'1 1.2
2018-Apr-19 12:19N 19°12' W 096°08'0 0.7
2018-Apr-19 11:55N 19°12' W 096°08'0 0.6
2018-Apr-19 11:29N 19°12' W 096°08'0 0.1
2018-Apr-19 06:53N 19°12' W 096°08'0 0.8
2018-Apr-19 06:29N 19°12' W 096°08'0 0.0
2018-Apr-19 05:50N 19°12' W 096°08'0 0.0
2018-Apr-19 05:23N 19°12' W 096°08'0 0.0
2018-Apr-19 04:56N 19°12' W 096°08'0 0.0
2018-Apr-19 04:29N 19°12' W 096°08'0 0.0
2018-Apr-19 00:55N 19°12' W 096°08'0 0.0
2018-Apr-19 00:28N 19°12' W 096°08'0 0.0
2018-Apr-18 22:40N 19°12' W 096°08'0 0.0
2018-Apr-18 22:19N 19°12' W 096°08'0 0.0
2018-Apr-18 21:37N 19°12' W 096°08'0 0.0
2018-Apr-18 19:58N 19°12' W 096°08'0 0.0
2018-Apr-18 19:25N 19°12' W 096°08'0 0.0
2018-Apr-18 18:43N 19°12' W 096°08'0 0.0
2018-Apr-18 18:30N 19°12' W 096°08'1 1.9
2018-Apr-18 18:00N 19°12' W 096°07'2 2.7
2018-Apr-18 17:25N 19°13' W 096°08'1 2.1
2018-Apr-18 16:59N 19°12' W 096°08'2 4.2
2018-Apr-18 16:30N 19°12' W 096°06'2 4.0
2018-Apr-18 15:59N 19°12' W 096°08'0 0.0
2018-Apr-18 15:28N 19°12' W 096°08'0 0.0
2018-Apr-18 14:58N 19°12' W 096°08'0 0.0
2018-Apr-18 14:28N 19°12' W 096°08'0 0.0
2018-Apr-18 14:00N 19°12' W 096°08'0 0.0
2018-Apr-18 10:09N 19°12' W 096°08'0 0.0
2018-Apr-18 09:57N 19°12' W 096°08'0 0.0
2018-Apr-18 09:27N 19°12' W 096°08'0 0.0
2018-Apr-18 08:57N 19°12' W 096°08'0 0.0
2018-Apr-18 08:27N 19°12' W 096°08'0 0.0
2018-Apr-18 07:57N 19°12' W 096°08'0 0.0
2018-Apr-18 07:27N 19°12' W 096°08'0 0.0
2018-Apr-18 07:00N 19°12' W 096°08'0 0.0
2018-Apr-18 06:30N 19°12' W 096°08'0 0.0
2018-Apr-18 05:57N 19°12' W 096°08'0 0.0
2018-Apr-18 05:27N 19°12' W 096°08'0 0.0
2018-Apr-18 05:00N 19°12' W 096°08'0 0.0
2018-Apr-18 04:27N 19°12' W 096°08'0 0.0
2018-Apr-18 03:57N 19°12' W 096°08'0 0.0
2018-Apr-18 03:27N 19°12' W 096°08'0 0.0
2018-Apr-18 02:51N 19°12' W 096°08'0 0.0
2018-Apr-18 02:30N 19°12' W 096°08'0 0.0
2018-Apr-18 02:00N 19°12' W 096°08'0 0.0
2018-Apr-18 01:21N 19°12' W 096°08'0 0.0
2018-Apr-18 01:00N 19°12' W 096°08'0 0.0
2018-Apr-18 00:27N 19°12' W 096°08'0 0.0
2018-Apr-17 23:57N 19°12' W 096°08'0 0.0
2018-Apr-17 23:30N 19°12' W 096°08'0 0.0
2018-Apr-17 22:57N 19°12' W 096°08'0 0.0
2018-Apr-17 22:30N 19°12' W 096°08'0 0.0
2018-Apr-17 21:57N 19°12' W 096°08'0 0.0
2018-Apr-17 21:30N 19°12' W 096°08'0 0.0
2018-Apr-17 20:57N 19°12' W 096°08'0 0.0
2018-Apr-17 20:24N 19°12' W 096°08'0 0.0
2018-Apr-17 20:00N 19°12' W 096°08'0 0.0
2018-Apr-17 19:24N 19°12' W 096°08'0 0.0
2018-Apr-17 19:00N 19°12' W 096°08'0 0.0
2018-Apr-17 18:30N 19°12' W 096°08'0 0.0
2018-Apr-17 18:00N 19°12' W 096°08'0 0.0
2018-Apr-17 17:30N 19°12' W 096°08'0 0.0
2018-Apr-17 16:57N 19°12' W 096°08'0 0.0
2018-Apr-17 16:30N 19°12' W 096°08'0 0.0
2018-Apr-17 16:00N 19°12' W 096°08'0 0.0
2018-Apr-17 15:27N 19°12' W 096°08'3 5.8
2018-Apr-17 15:00N 19°12' W 096°05'2 4.6
2018-Apr-17 14:29N 19°12' W 096°08'0 0.9
2018-Apr-17 14:00N 19°12' W 096°08'0 0.8
2018-Apr-17 13:29N 19°12' W 096°08'0 0.0
2018-Apr-17 12:59N 19°12' W 096°08'0 0.0
2018-Apr-17 12:26N 19°12' W 096°08'0 0.0
2018-Apr-17 11:59N 19°12' W 096°08'0 0.0
2018-Apr-17 11:29N 19°12' W 096°08'0 0.0
2018-Apr-17 10:59N 19°12' W 096°08'0 0.0
2018-Apr-17 10:26N 19°12' W 096°08'0 0.0
2018-Apr-17 09:56N 19°12' W 096°08'0 0.0
2018-Apr-17 09:29N 19°12' W 096°08'0 0.0
2018-Apr-17 08:59N 19°12' W 096°08'0 0.0
2018-Apr-17 08:23N 19°12' W 096°08'0 0.0
2018-Apr-17 07:59N 19°12' W 096°08'0 0.0
2018-Apr-17 07:29N 19°12' W 096°08'3 5.7
2018-Apr-17 07:00N 19°12' W 096°05'3 5.1
2018-Apr-17 06:30N 19°12' W 096°08'0 0.0
2018-Apr-17 06:00N 19°12' W 096°08'0 0.5
2018-Apr-17 05:28N 19°12' W 096°08'0 0.0
2018-Apr-17 04:58N 19°12' W 096°08'0 0.4
2018-Apr-17 04:18N 19°12' W 096°08'0 0.0
2018-Apr-17 04:00N 19°12' W 096°08'0 0.0
2018-Apr-17 03:30N 19°12' W 096°08'0 0.0
2018-Apr-17 03:00N 19°12' W 096°08'0 0.0
2018-Apr-17 02:30N 19°12' W 096°08'0 0.0
2018-Apr-17 02:00N 19°12' W 096°08'0 0.1
2018-Apr-17 01:30N 19°12' W 096°08'1 1.3
2018-Apr-17 00:58N 19°13' W 096°08'1 2.1
2018-Apr-17 00:30N 19°12' W 096°08'4 6.8
2018-Apr-16 23:54N 19°12' W 096°03'4 8.9
2018-Apr-16 23:29N 19°12' W 096°07'0 0.9
2018-Apr-16 22:59N 19°12' W 096°08'0 0.0
2018-Apr-16 22:29N 19°12' W 096°08'0 0.0
2018-Apr-16 21:59N 19°12' W 096°08'0 0.0
2018-Apr-16 21:29N 19°12' W 096°08'0 0.0
2018-Apr-16 20:59N 19°12' W 096°08'1 1.8
2018-Apr-16 20:28N 19°13' W 096°08'0 1.0
2018-Apr-16 19:59N 19°12' W 096°08'3 4.4
2018-Apr-16 19:19N 19°12' W 096°05'3 8.4
2018-Apr-16 19:00N 19°12' W 096°08'0 0.0
2018-Apr-16 18:30N 19°12' W 096°08'0 0.3
2018-Apr-16 17:38N 19°12' W 096°08'0 0.0
2018-Apr-16 17:29N 19°12' W 096°08'0 0.0
2018-Apr-16 16:59N 19°12' W 096°08'0 0.0
2018-Apr-16 16:20N 19°12' W 096°08'0 0.0
2018-Apr-16 15:52N 19°12' W 096°08'0 0.0
2018-Apr-16 15:20N 19°12' W 096°08'0 0.0
2018-Apr-16 14:58N 19°12' W 096°08'0 0.0
2018-Apr-16 14:28N 19°12' W 096°08'0 0.0
2018-Apr-16 13:58N 19°12' W 096°08'0 0.6
2018-Apr-16 13:30N 19°12' W 096°08'0 0.0
2018-Apr-16 13:00N 19°12' W 096°08'0 0.0
2018-Apr-16 12:30N 19°12' W 096°08'0 0.1
2018-Apr-16 12:00N 19°12' W 096°08'0 0.1
2018-Apr-16 11:30N 19°12' W 096°08'2 3.8
2018-Apr-16 10:59N 19°12' W 096°06'2 3.9
2018-Apr-16 10:29N 19°12' W 096°08'0 0.0
2018-Apr-16 09:59N 19°12' W 096°08'0 0.0
2018-Apr-16 09:26N 19°12' W 096°08'0 0.0
2018-Apr-16 08:59N 19°12' W 096°08'0 0.0
2018-Apr-16 08:29N 19°12' W 096°08'0 0.0
2018-Apr-16 07:59N 19°12' W 096°08'0 0.0
2018-Apr-16 07:26N 19°12' W 096°08'0 0.0
2018-Apr-16 06:59N 19°12' W 096°08'0 0.0
2018-Apr-16 06:29N 19°12' W 096°08'0 0.0
2018-Apr-16 05:59N 19°12' W 096°08'0 0.0
2018-Apr-16 05:29N 19°12' W 096°08'0 0.0
2018-Apr-16 04:56N 19°12' W 096°08'0 0.0
2018-Apr-16 04:29N 19°12' W 096°08'0 0.0
2018-Apr-16 03:59N 19°12' W 096°08'0 0.0
2018-Apr-16 03:26N 19°12' W 096°08'0 0.0
2018-Apr-16 02:59N 19°12' W 096°08'0 0.0
2018-Apr-16 02:20N 19°12' W 096°08'0 0.0
2018-Apr-16 01:56N 19°12' W 096°08'0 0.0
2018-Apr-16 01:29N 19°12' W 096°08'0 0.0
2018-Apr-16 00:56N 19°12' W 096°08'0 0.0
2018-Apr-16 00:29N 19°12' W 096°08'3 4.9
2018-Apr-15 23:56N 19°12' W 096°05'3 6.3
2018-Apr-15 23:30N 19°12' W 096°08'0 0.0
2018-Apr-15 23:00N 19°12' W 096°08'0 0.0
2018-Apr-15 22:27N 19°12' W 096°08'0 0.0
2018-Apr-15 22:00N 19°12' W 096°08'0 0.0
2018-Apr-15 21:30N 19°12' W 096°08'0 0.0
2018-Apr-15 21:00N 19°12' W 096°08'0 0.0
2018-Apr-15 20:30N 19°12' W 096°08'0 0.0
2018-Apr-15 20:00N 19°12' W 096°08'0 0.0
2018-Apr-15 19:30N 19°12' W 096°08'0 0.1
2018-Apr-15 19:00N 19°12' W 096°08'0 0.4
2018-Apr-15 18:21N 19°12' W 096°08'0 0.0
2018-Apr-15 18:00N 19°12' W 096°08'0 0.0
2018-Apr-15 17:24N 19°12' W 096°08'0 0.0
2018-Apr-15 16:57N 19°12' W 096°08'0 0.0
2018-Apr-15 16:21N 19°12' W 096°08'0 0.0
2018-Apr-15 16:00N 19°12' W 096°08'0 0.0
2018-Apr-15 15:30N 19°12' W 096°08'0 0.0
2018-Apr-15 15:00N 19°12' W 096°08'0 0.0
2018-Apr-15 14:30N 19°12' W 096°08'0 0.0
2018-Apr-15 13:54N 19°12' W 096°08'0 0.0
2018-Apr-15 13:30N 19°12' W 096°08'0 0.0
2018-Apr-15 13:00N 19°12' W 096°08'0 0.0
2018-Apr-15 12:30N 19°12' W 096°08'0 0.0
2018-Apr-15 12:00N 19°12' W 096°08'0 0.0
2018-Apr-15 11:30N 19°12' W 096°08'0 0.0
2018-Apr-15 10:57N 19°12' W 096°08'0 0.0
2018-Apr-15 10:09N 19°12' W 096°08'0 0.0
2018-Apr-15 10:00N 19°12' W 096°08'0 0.0
2018-Apr-15 09:24N 19°12' W 096°08'0 0.0
2018-Apr-15 08:51N 19°12' W 096°08'0 0.0
2018-Apr-15 08:24N 19°12' W 096°08'0 0.0
2018-Apr-15 08:00N 19°12' W 096°08'0 0.0
2018-Apr-15 07:24N 19°12' W 096°08'0 0.0
2018-Apr-15 06:54N 19°12' W 096°08'0 0.0
2018-Apr-15 06:03N 19°12' W 096°08'0 0.0
2018-Apr-15 06:00N 19°12' W 096°08'0 0.0
2018-Apr-15 05:00N 19°12' W 096°08'0 0.0
2018-Apr-15 04:30N 19°12' W 096°08'0 0.0
2018-Apr-15 04:00N 19°12' W 096°08'0 0.0
2018-Apr-15 03:30N 19°12' W 096°08'0 0.0
2018-Apr-15 03:00N 19°12' W 096°08'0 0.0
2018-Apr-15 02:18N 19°12' W 096°08'0 0.0
2018-Apr-15 02:00N 19°12' W 096°08'0 0.0
2018-Apr-15 01:30N 19°12' W 096°08'0 0.0
2018-Apr-15 00:54N 19°12' W 096°08'0 0.0
2018-Apr-15 00:24N 19°12' W 096°08'0 0.0
2018-Apr-15 00:00N 19°12' W 096°08'0 0.0
2018-Apr-14 23:24N 19°12' W 096°08'0 0.0
2018-Apr-14 23:00N 19°12' W 096°08'0 0.0
2018-Apr-14 22:30N 19°12' W 096°08'0 0.0
2018-Apr-14 22:00N 19°12' W 096°08'0 0.0
2018-Apr-14 21:24N 19°12' W 096°08'0 0.0
2018-Apr-14 20:54N 19°12' W 096°08'0 0.0
2018-Apr-14 20:30N 19°12' W 096°08'0 0.0
2018-Apr-14 20:00N 19°12' W 096°08'0 0.0
2018-Apr-14 19:30N 19°12' W 096°08'0 0.6
2018-Apr-14 19:00N 19°12' W 096°08'0 0.0
2018-Apr-14 18:30N 19°12' W 096°08'0 0.0
2018-Apr-14 18:00N 19°12' W 096°08'0 0.0
2018-Apr-14 17:30N 19°12' W 096°08'2 3.5
2018-Apr-14 16:59N 19°12' W 096°06'2 3.3
2018-Apr-14 16:30N 19°12' W 096°08'0 0.7
2018-Apr-14 15:59N 19°12' W 096°08'0 0.0
2018-Apr-14 15:26N 19°12' W 096°08'0 0.0
2018-Apr-14 14:59N 19°12' W 096°08'0 0.0
2018-Apr-14 14:29N 19°12' W 096°08'0 0.0
2018-Apr-14 13:59N 19°12' W 096°08'0 0.0
2018-Apr-14 13:29N 19°12' W 096°08'3 5.3
2018-Apr-14 12:57N 19°12' W 096°05'2 4.9
2018-Apr-14 12:30N 19°12' W 096°07'1 1.1
2018-Apr-14 11:58N 19°12' W 096°08'0 0.1
2018-Apr-14 11:27N 19°12' W 096°08'0 0.0
2018-Apr-14 11:00N 19°12' W 096°08'0 0.0
2018-Apr-14 10:30N 19°12' W 096°08'0 0.0
2018-Apr-14 10:00N 19°12' W 096°08'0 0.0
2018-Apr-14 09:30N 19°12' W 096°08'2 3.3
2018-Apr-14 08:59N 19°12' W 096°06'2 3.3
2018-Apr-14 08:28N 19°12' W 096°08'0 0.0
2018-Apr-14 07:58N 19°12' W 096°08'0 0.0
2018-Apr-14 07:29N 19°12' W 096°08'1 0.8
2018-Apr-14 06:28N 19°13' W 096°08'0 0.0
2018-Apr-14 06:00N 19°13' W 096°08'5 7.6
2018-Apr-14 05:23N 19°11' W 096°04'4 9.8
2018-Apr-14 04:59N 19°12' W 096°08'0 0.3
2018-Apr-14 04:30N 19°12' W 096°08'0 0.0
2018-Apr-14 04:00N 19°12' W 096°08'0 0.0
2018-Apr-14 03:30N 19°12' W 096°08'0 0.9
2018-Apr-14 03:00N 19°12' W 096°07'1 2.1
2018-Apr-14 02:30N 19°12' W 096°06'2 2.9
2018-Apr-14 01:58N 19°12' W 096°08'0 0.4
2018-Apr-14 01:31N 19°12' W 096°08'0 0.0
2018-Apr-14 01:01N 19°12' W 096°08'0 0.0
2018-Apr-14 00:30N 19°12' W 096°08'0 0.0
2018-Apr-13 23:58N 19°12' W 096°08'0 0.0
2018-Apr-13 23:31N 19°12' W 096°08'0 0.0
2018-Apr-13 23:01N 19°12' W 096°08'1 1.5
2018-Apr-13 22:30N 19°12' W 096°07'0 0.2
2018-Apr-13 21:58N 19°12' W 096°07'1 1.2
2018-Apr-13 21:30N 19°12' W 096°07'0 0.8
2018-Apr-13 20:58N 19°12' W 096°08'1 1.6
2018-Apr-13 20:30N 19°13' W 096°08'1 1.5
2018-Apr-13 19:59N 19°12' W 096°08'0 0.6
2018-Apr-13 19:28N 19°12' W 096°08'0 0.4
2018-Apr-13 19:00N 19°12' W 096°08'0 0.2
2018-Apr-13 18:29N 19°12' W 096°08'0 0.0
2018-Apr-13 17:59N 19°12' W 096°08'0 0.0
2018-Apr-13 17:26N 19°12' W 096°08'0 0.0
2018-Apr-13 17:00N 19°12' W 096°08'0 0.5
2018-Apr-13 16:29N 19°12' W 096°08'0 0.0
2018-Apr-13 15:56N 19°12' W 096°08'0 0.0
2018-Apr-13 15:29N 19°12' W 096°08'0 0.0
2018-Apr-13 14:44N 19°12' W 096°08'0 0.0
2018-Apr-13 14:26N 19°12' W 096°08'0 0.0
2018-Apr-13 13:56N 19°12' W 096°08'0 0.0
2018-Apr-13 13:17N 19°12' W 096°08'0 0.0
2018-Apr-13 12:59N 19°12' W 096°08'0 0.0
2018-Apr-13 12:26N 19°12' W 096°08'0 0.0
2018-Apr-13 11:56N 19°12' W 096°08'0 0.0
2018-Apr-13 11:29N 19°12' W 096°08'0 0.0
2018-Apr-13 10:50N 19°12' W 096°08'0 0.0
2018-Apr-13 10:26N 19°12' W 096°08'0 0.0
2018-Apr-13 09:56N 19°12' W 096°08'0 0.0
2018-Apr-13 09:26N 19°12' W 096°08'0 0.0
2018-Apr-13 08:56N 19°12' W 096°08'0 0.0
2018-Apr-13 08:26N 19°12' W 096°08'0 0.2
2018-Apr-13 07:59N 19°12' W 096°08'2 4.4
2018-Apr-13 07:29N 19°12' W 096°06'2 4.2
2018-Apr-13 06:59N 19°12' W 096°08'0 0.1
2018-Apr-13 06:28N 19°12' W 096°08'0 0.0
2018-Apr-13 05:55N 19°12' W 096°08'0 0.0
2018-Apr-13 05:25N 19°12' W 096°08'0 0.0
2018-Apr-13 04:58N 19°12' W 096°08'0 0.0
2018-Apr-13 04:28N 19°12' W 096°08'0 0.0
2018-Apr-13 03:58N 19°12' W 096°08'0 0.0
2018-Apr-13 03:28N 19°12' W 096°08'0 0.0
2018-Apr-13 02:58N 19°12' W 096°08'0 0.0
2018-Apr-13 02:27N 19°12' W 096°08'2 4.3
2018-Apr-13 02:00N 19°12' W 096°06'2 3.7
2018-Apr-13 01:28N 19°12' W 096°08'0 0.0
2018-Apr-13 01:00N 19°12' W 096°08'0 0.0
2018-Apr-13 00:30N 19°12' W 096°08'0 0.0
2018-Apr-12 23:57N 19°12' W 096°08'0 0.0
2018-Apr-12 23:21N 19°12' W 096°08'3 6.6
2018-Apr-12 22:56N 19°12' W 096°05'2 5.2
2018-Apr-12 22:30N 19°12' W 096°07'1 1.1
2018-Apr-12 22:00N 19°12' W 096°08'0 0.0
2018-Apr-12 21:30N 19°12' W 096°08'0 0.0
2018-Apr-12 21:00N 19°12' W 096°08'0 0.0
2018-Apr-12 20:31N 19°12' W 096°08'0 0.0
2018-Apr-12 19:55N 19°12' W 096°08'0 0.0
2018-Apr-12 19:31N 19°12' W 096°08'0 0.0
2018-Apr-12 19:01N 19°12' W 096°08'0 0.0
2018-Apr-12 18:31N 19°12' W 096°08'0 0.0
2018-Apr-12 18:01N 19°12' W 096°08'0 0.0
2018-Apr-12 17:27N 19°12' W 096°08'0 0.2
2018-Apr-12 17:00N 19°12' W 096°08'0 0.4
2018-Apr-12 16:30N 19°12' W 096°08'3 5.7
2018-Apr-12 15:56N 19°11' W 096°04'3 7.9
2018-Apr-12 15:29N 19°12' W 096°08'0 0.0
2018-Apr-12 14:50N 19°12' W 096°08'0 0.0
2018-Apr-12 14:26N 19°12' W 096°08'0 0.0
2018-Apr-12 13:59N 19°12' W 096°08'0 0.0
2018-Apr-12 13:29N 19°12' W 096°08'0 0.0
2018-Apr-12 12:56N 19°12' W 096°08'0 0.6
2018-Apr-12 12:26N 19°12' W 096°08'0 0.7
2018-Apr-12 11:59N 19°12' W 096°08'0 0.0
2018-Apr-12 11:23N 19°12' W 096°08'0 0.0
2018-Apr-12 10:59N 19°12' W 096°08'0 0.0
2018-Apr-12 10:29N 19°12' W 096°08'0 0.0
2018-Apr-12 09:59N 19°12' W 096°08'0 0.0
2018-Apr-12 09:29N 19°12' W 096°08'0 0.0
2018-Apr-12 08:59N 19°12' W 096°08'0 0.0
2018-Apr-12 08:29N 19°12' W 096°08'0 0.0
2018-Apr-12 07:56N 19°12' W 096°08'0 0.0
2018-Apr-12 07:29N 19°12' W 096°08'0 0.0
2018-Apr-12 06:56N 19°12' W 096°08'0 0.0
2018-Apr-12 06:29N 19°12' W 096°08'0 0.0
2018-Apr-12 05:56N 19°12' W 096°08'0 0.0
2018-Apr-12 05:29N 19°12' W 096°08'0 0.0
2018-Apr-12 04:56N 19°12' W 096°08'2 4.3
2018-Apr-12 04:30N 19°12' W 096°06'1 2.2
2018-Apr-12 04:00N 19°12' W 096°07'1 1.5
2018-Apr-12 03:29N 19°12' W 096°08'0 0.0
2018-Apr-12 02:59N 19°12' W 096°08'0 0.0
2018-Apr-12 02:26N 19°12' W 096°08'0 0.0
2018-Apr-12 01:59N 19°12' W 096°08'0 0.0
2018-Apr-12 01:29N 19°12' W 096°08'0 0.0
2018-Apr-12 00:59N 19°12' W 096°08'0 0.0
2018-Apr-12 00:29N 19°12' W 096°08'0 0.0
2018-Apr-11 23:59N 19°12' W 096°08'0 0.0
2018-Apr-11 23:30N 19°12' W 096°08'0 0.5
2018-Apr-11 22:56N 19°12' W 096°08'0 0.0
2018-Apr-11 22:29N 19°12' W 096°08'0 0.0
2018-Apr-11 21:59N 19°12' W 096°08'0 0.0
2018-Apr-11 21:29N 19°12' W 096°08'0 0.0
2018-Apr-11 20:56N 19°12' W 096°08'0 0.0
2018-Apr-11 20:29N 19°12' W 096°08'0 0.0
2018-Apr-11 19:59N 19°12' W 096°08'0 0.0
2018-Apr-11 19:29N 19°12' W 096°08'0 0.0
2018-Apr-11 18:59N 19°12' W 096°08'0 0.0
2018-Apr-11 18:20N 19°12' W 096°08'0 0.0
2018-Apr-11 17:59N 19°12' W 096°08'0 0.0
2018-Apr-11 17:29N 19°12' W 096°08'0 0.0
2018-Apr-11 16:59N 19°12' W 096°08'0 0.0
2018-Apr-11 16:29N 19°12' W 096°08'0 0.0
2018-Apr-11 15:59N 19°12' W 096°08'0 0.0
2018-Apr-11 15:29N 19°12' W 096°08'0 0.0
2018-Apr-11 14:59N 19°12' W 096°08'0 0.0
2018-Apr-11 14:23N 19°12' W 096°08'0 0.0
2018-Apr-11 13:59N 19°12' W 096°08'0 0.0
2018-Apr-11 13:29N 19°12' W 096°08'0 0.0
2018-Apr-11 12:59N 19°12' W 096°08'0 0.0
2018-Apr-11 12:29N 19°12' W 096°08'0 0.0
2018-Apr-11 11:56N 19°12' W 096°08'0 0.0
2018-Apr-11 11:26N 19°12' W 096°08'0 0.0
2018-Apr-11 10:59N 19°12' W 096°08'0 0.0
2018-Apr-11 10:29N 19°12' W 096°08'0 0.0
2018-Apr-11 09:59N 19°12' W 096°08'0 0.0
2018-Apr-11 09:17N 19°12' W 096°08'0 0.0
2018-Apr-11 08:59N 19°12' W 096°08'0 0.0
2018-Apr-11 08:29N 19°12' W 096°08'0 0.0
2018-Apr-11 07:59N 19°12' W 096°08'0 0.0
2018-Apr-11 07:29N 19°12' W 096°08'0 0.0
2018-Apr-11 06:56N 19°12' W 096°08'0 0.0
2018-Apr-11 06:29N 19°12' W 096°08'0 0.0
2018-Apr-11 05:59N 19°12' W 096°08'0 0.0
2018-Apr-11 05:20N 19°12' W 096°08'0 0.0
2018-Apr-11 04:59N 19°12' W 096°08'0 0.0
2018-Apr-11 04:29N 19°12' W 096°08'0 0.0
2018-Apr-11 03:59N 19°12' W 096°08'0 0.0
2018-Apr-11 03:29N 19°12' W 096°08'0 0.0
2018-Apr-11 02:59N 19°12' W 096°08'0 0.0
2018-Apr-11 02:29N 19°12' W 096°08'0 0.0
2018-Apr-11 01:59N 19°12' W 096°08'0 0.0
2018-Apr-11 01:29N 19°12' W 096°08'0 0.0
2018-Apr-11 00:56N 19°12' W 096°08'0 0.7
2018-Apr-11 00:30N 19°12' W 096°08'0 0.0
2018-Apr-11 00:00N 19°12' W 096°08'0 0.0
2018-Apr-10 23:30N 19°12' W 096°08'0 0.0
2018-Apr-10 23:00N 19°12' W 096°08'3 4.9
2018-Apr-10 22:25N 19°12' W 096°05'2 5.1
2018-Apr-10 22:00N 19°12' W 096°07'1 1.8
2018-Apr-10 21:28N 19°12' W 096°08'0 1.0
2018-Apr-10 21:00N 19°12' W 096°08'0 0.0
2018-Apr-10 20:27N 19°12' W 096°08'0 0.0
2018-Apr-10 20:00N 19°12' W 096°08'0 0.0
2018-Apr-10 19:30N 19°12' W 096°08'0 0.0
2018-Apr-10 19:00N 19°12' W 096°08'0 0.0
2018-Apr-10 18:30N 19°12' W 096°08'0 0.0
2018-Apr-10 18:00N 19°12' W 096°08'0 0.0
2018-Apr-10 17:30N 19°12' W 096°08'0 0.0
2018-Apr-10 17:00N 19°12' W 096°08'1 1.6
2018-Apr-10 16:29N 19°13' W 096°08'1 1.0
2018-Apr-10 15:55N 19°12' W 096°08'0 0.0
2018-Apr-10 15:30N 19°12' W 096°08'0 0.5
2018-Apr-10 14:58N 19°12' W 096°08'2 5.2
2018-Apr-10 14:30N 19°12' W 096°05'2 4.7
2018-Apr-10 14:00N 19°12' W 096°08'0 0.5
2018-Apr-10 13:27N 19°12' W 096°08'0 0.5
2018-Apr-10 12:55N 19°12' W 096°08'0 0.0
2018-Apr-10 12:30N 19°12' W 096°08'0 0.0
2018-Apr-10 11:59N 19°12' W 096°08'0 0.0
2018-Apr-10 11:29N 19°12' W 096°08'0 0.1
2018-Apr-10 10:59N 19°12' W 096°08'0 0.1
2018-Apr-10 10:30N 19°12' W 096°08'2 4.7
2018-Apr-10 09:58N 19°12' W 096°05'3 5.4
2018-Apr-10 09:30N 19°12' W 096°08'0 0.0
2018-Apr-10 09:00N 19°12' W 096°08'0 0.0
2018-Apr-10 08:30N 19°12' W 096°08'0 0.0
2018-Apr-10 08:00N 19°12' W 096°08'0 0.0
2018-Apr-10 07:27N 19°12' W 096°08'0 0.0
2018-Apr-10 07:00N 19°12' W 096°08'0 0.0
2018-Apr-10 06:27N 19°12' W 096°08'0 0.2
2018-Apr-10 06:00N 19°12' W 096°08'2 3.9
2018-Apr-10 05:30N 19°12' W 096°06'0 0.8
2018-Apr-10 04:59N 19°12' W 096°05'2 3.6
2018-Apr-10 04:29N 19°11' W 096°03'2 4.0
2018-Apr-10 03:59N 19°12' W 096°06'0 0.9
2018-Apr-10 03:29N 19°12' W 096°06'2 3.4
2018-Apr-10 02:59N 19°12' W 096°08'0 0.5
2018-Apr-10 02:28N 19°12' W 096°08'0 0.0
2018-Apr-10 01:58N 19°12' W 096°08'0 0.0
2018-Apr-10 01:28N 19°12' W 096°08'0 0.0
2018-Apr-10 00:58N 19°12' W 096°08'0 0.0
2018-Apr-10 00:25N 19°12' W 096°08'0 0.0
2018-Apr-09 23:58N 19°12' W 096°08'  

Dump ship's entire track history